createdAt,value
2023-03-16T00:02:14.286Z,3.93
2023-03-16T00:04:38.433Z,3.00
2023-03-16T00:07:01.968Z,3.50
2023-03-16T00:09:31.122Z,3.47
2023-03-16T00:11:54.817Z,3.23
2023-03-16T00:14:19.771Z,3.70
2023-03-16T00:16:43.384Z,3.53
2023-03-16T00:19:07.023Z,3.30
2023-03-16T00:21:32.209Z,3.47
2023-03-16T00:23:55.967Z,3.93
2023-03-16T00:26:19.914Z,3.20
2023-03-16T00:28:43.704Z,4.03
2023-03-16T00:31:11.900Z,3.70
2023-03-16T00:33:37.703Z,3.73
2023-03-16T00:36:08.098Z,3.40
2023-03-16T00:38:36.060Z,3.23
2023-03-16T00:40:59.922Z,3.83
2023-03-16T00:43:23.692Z,3.90
2023-03-16T00:45:48.623Z,3.70
2023-03-16T00:48:13.677Z,3.90
2023-03-16T00:50:37.403Z,3.53
2023-03-16T00:53:01.199Z,3.47
2023-03-16T00:55:24.915Z,3.53
2023-03-16T00:57:48.655Z,3.90
2023-03-16T01:00:16.749Z,3.30
2023-03-16T01:02:40.407Z,3.50
2023-03-16T01:05:07.177Z,3.33
2023-03-16T01:07:31.232Z,3.10
2023-03-16T01:09:54.783Z,3.43
2023-03-16T01:12:20.832Z,3.60
2023-03-16T01:14:46.310Z,3.60
2023-03-16T01:17:11.151Z,3.20
2023-03-16T01:19:35.752Z,3.23
2023-03-16T01:22:02.085Z,3.90
2023-03-16T01:24:25.686Z,3.17
2023-03-16T01:26:49.337Z,3.20
2023-03-16T01:29:13.286Z,3.53
2023-03-16T01:31:37.235Z,3.47
2023-03-16T01:34:02.852Z,3.37
2023-03-16T01:36:26.796Z,2.90
2023-03-16T01:38:55.859Z,3.53
2023-03-16T01:41:22.400Z,3.60
2023-03-16T01:43:46.222Z,3.40
2023-03-16T01:46:24.816Z,3.43
2023-03-16T01:49:08.642Z,3.60
2023-03-16T01:51:39.176Z,3.20
2023-03-16T01:54:09.587Z,3.30
2023-03-16T01:56:39.499Z,3.63
2023-03-16T01:59:09.138Z,3.50
2023-03-16T02:01:33.432Z,3.30
2023-03-16T02:04:06.358Z,3.37
2023-03-16T02:06:32.343Z,3.67
2023-03-16T02:08:58.513Z,3.53
2023-03-16T02:11:24.906Z,3.30
2023-03-16T02:14:12.832Z,3.63
2023-03-16T02:16:39.226Z,3.20
2023-03-16T02:19:03.094Z,3.27
2023-03-16T02:21:35.849Z,3.67
2023-03-16T02:24:03.240Z,3.33
2023-03-16T02:26:37.683Z,3.97
2023-03-16T02:29:15.820Z,3.60
2023-03-16T02:31:43.049Z,3.60
2023-03-16T02:34:08.295Z,3.90
2023-03-16T02:36:34.450Z,4.00
2023-03-16T02:38:59.463Z,3.13
2023-03-16T02:41:24.125Z,3.60
2023-03-16T02:43:57.135Z,3.43
2023-03-16T02:46:29.681Z,3.80
2023-03-16T02:49:03.157Z,2.83
2023-03-16T02:51:26.916Z,3.47
2023-03-16T02:53:51.337Z,3.23
2023-03-16T02:56:15.715Z,3.40
2023-03-16T02:58:39.368Z,3.90
2023-03-16T03:01:08.359Z,3.50
2023-03-16T03:03:34.431Z,3.57
2023-03-16T03:05:59.586Z,3.00
2023-03-16T03:08:23.576Z,3.20
2023-03-16T03:10:47.718Z,3.00
2023-03-16T03:13:12.318Z,3.13
2023-03-16T03:15:37.262Z,3.17
2023-03-16T03:18:05.259Z,3.13
2023-03-16T03:20:29.748Z,3.50
2023-03-16T03:22:55.336Z,3.50
2023-03-16T03:25:20.243Z,3.60
2023-03-16T03:27:44.847Z,3.10
2023-03-16T03:30:14.765Z,3.20
2023-03-16T03:32:38.451Z,3.40
2023-03-16T03:35:02.236Z,3.30
2023-03-16T03:37:25.837Z,3.30
2023-03-16T03:39:51.211Z,3.10
2023-03-16T03:42:15.121Z,3.37
2023-03-16T03:44:38.784Z,3.07
2023-03-16T03:47:02.628Z,3.50
2023-03-16T03:49:26.296Z,3.47
2023-03-16T03:51:49.967Z,3.37
2023-03-16T03:54:18.675Z,3.50
2023-03-16T03:56:55.679Z,2.80
2023-03-16T03:59:19.435Z,3.80
2023-03-16T04:01:59.889Z,3.30
2023-03-16T04:04:33.536Z,3.20
2023-03-16T04:06:57.233Z,3.20
2023-03-16T04:09:20.776Z,3.23
2023-03-16T04:11:44.593Z,3.03
2023-03-16T04:14:09.879Z,3.53
2023-03-16T04:16:35.935Z,3.27
2023-03-16T04:18:59.829Z,3.30
2023-03-16T04:21:24.372Z,3.50
2023-03-16T04:23:48.210Z,3.20
2023-03-16T04:26:12.708Z,3.40
2023-03-16T04:28:38.528Z,3.47
2023-03-16T04:31:06.990Z,3.63
2023-03-16T04:33:36.349Z,3.30
2023-03-16T04:35:59.966Z,3.83
2023-03-16T04:38:23.823Z,3.37
2023-03-16T04:40:52.584Z,3.40
2023-03-16T04:43:19.810Z,3.13
2023-03-16T04:45:45.286Z,3.30
2023-03-16T04:48:10.753Z,3.00
2023-03-16T04:50:35.620Z,3.57
2023-03-16T04:52:59.270Z,3.30
2023-03-16T04:55:24.409Z,3.70
2023-03-16T04:57:48.652Z,3.67
2023-03-16T05:00:18.956Z,3.73
2023-03-16T05:02:58.897Z,3.60
2023-03-16T05:05:23.987Z,3.50
2023-03-16T05:07:47.882Z,3.57
2023-03-16T05:10:13.723Z,3.90
2023-03-16T05:12:37.282Z,3.50
2023-03-16T05:15:02.815Z,3.03
2023-03-16T05:17:33.141Z,3.27
2023-03-16T05:19:56.697Z,3.37
2023-03-16T05:22:21.673Z,3.47
2023-03-16T05:25:05.514Z,3.33
2023-03-16T05:27:30.084Z,3.40
2023-03-16T05:29:54.261Z,3.60
2023-03-16T05:32:18.192Z,3.60
2023-03-16T05:34:43.495Z,3.47
2023-03-16T05:37:07.960Z,3.87
2023-03-16T05:39:34.529Z,3.33
2023-03-16T05:41:58.434Z,3.53
2023-03-16T05:44:36.454Z,3.90
2023-03-16T05:47:11.655Z,2.90
2023-03-16T05:49:39.828Z,3.13
2023-03-16T05:52:08.652Z,3.63
2023-03-16T05:54:34.335Z,2.93
2023-03-16T05:56:57.958Z,2.90
2023-03-16T05:59:22.104Z,3.27
2023-03-16T06:01:50.653Z,3.60
2023-03-16T06:04:16.422Z,3.30
2023-03-16T06:06:40.889Z,3.57
2023-03-16T06:09:12.767Z,3.37
2023-03-16T06:11:38.215Z,4.03
2023-03-16T06:14:02.042Z,3.07
2023-03-16T06:16:25.754Z,3.70
2023-03-16T06:18:49.383Z,3.10
2023-03-16T06:21:13.327Z,3.60
2023-03-16T06:23:37.653Z,4.07
2023-03-16T06:26:03.161Z,3.77
2023-03-16T06:28:30.199Z,3.90
2023-03-16T06:30:55.863Z,3.30
2023-03-16T06:33:22.173Z,3.17
2023-03-16T06:35:48.248Z,3.17
2023-03-16T06:38:24.540Z,3.40
2023-03-16T06:40:55.939Z,3.53
2023-03-16T06:43:20.552Z,3.40
2023-03-16T06:45:46.314Z,5.33
2023-03-16T06:48:10.345Z,4.03
2023-03-16T06:50:34.081Z,4.60
2023-03-16T06:52:57.816Z,5.03
2023-03-16T06:55:22.242Z,4.10
2023-03-16T06:57:46.709Z,4.30
2023-03-16T07:00:14.085Z,5.60
2023-03-16T07:02:40.548Z,4.77
2023-03-16T07:05:05.870Z,4.13
2023-03-16T07:07:29.917Z,4.50
2023-03-16T07:09:53.498Z,4.60
2023-03-16T07:12:17.091Z,4.60
2023-03-16T07:14:42.122Z,4.43
2023-03-16T07:17:08.704Z,3.13
2023-03-16T07:19:33.611Z,3.10
2023-03-16T07:21:58.878Z,2.77
2023-03-16T07:24:23.774Z,2.90
2023-03-16T07:26:47.499Z,2.75
2023-03-16T07:29:19.810Z,3.15
2023-03-16T07:31:43.620Z,2.47
2023-03-16T07:34:12.463Z,2.78
2023-03-16T07:36:42.802Z,2.85
2023-03-16T07:39:07.387Z,3.25
2023-03-16T07:41:32.810Z,3.75
2023-03-16T07:44:11.376Z,2.90
2023-03-16T07:46:36.238Z,4.50
2023-03-16T07:49:00.057Z,3.83
2023-03-16T07:51:23.870Z,4.00
2023-03-16T07:53:50.098Z,3.92
2023-03-16T07:56:17.864Z,3.83
2023-03-16T07:58:44.509Z,4.75
2023-03-16T08:01:09.350Z,3.70
2023-03-16T08:03:33.043Z,3.42
2023-03-16T08:05:57.681Z,2.58
2023-03-16T08:08:22.390Z,2.80
2023-03-16T08:10:49.154Z,2.95
2023-03-16T08:13:15.786Z,3.05
2023-03-16T08:15:42.426Z,2.95
2023-03-16T08:18:16.065Z,2.63
2023-03-16T08:20:39.946Z,2.58
2023-03-16T08:23:05.084Z,2.30
2023-03-16T08:25:35.072Z,2.63
2023-03-16T08:28:05.982Z,3.22
2023-03-16T08:30:31.015Z,2.67
2023-03-16T08:33:23.019Z,2.85
2023-03-16T08:35:49.299Z,3.05
2023-03-16T08:38:13.584Z,3.25
2023-03-16T08:40:37.466Z,2.78
2023-03-16T08:43:01.761Z,3.08
2023-03-16T08:45:26.974Z,2.63
2023-03-16T08:47:51.196Z,2.65
2023-03-16T08:50:15.622Z,2.88
2023-03-16T08:52:39.231Z,3.40
2023-03-16T08:55:04.940Z,2.30
2023-03-16T08:57:28.579Z,2.72
2023-03-16T08:59:52.259Z,2.50
2023-03-16T09:02:17.314Z,2.28
2023-03-16T09:04:41.037Z,2.10
2023-03-16T09:07:09.618Z,1.90
2023-03-16T09:09:34.308Z,2.17
2023-03-16T09:11:58.967Z,2.38
2023-03-16T09:14:23.592Z,1.70
2023-03-16T09:16:47.120Z,2.38
2023-03-16T09:19:12.145Z,2.03
2023-03-16T09:21:36.250Z,2.10
2023-03-16T09:24:00.415Z,3.38
2023-03-16T09:26:28.677Z,1.70
2023-03-16T09:28:52.456Z,2.00
2023-03-16T09:31:21.113Z,1.83
2023-03-16T09:33:44.870Z,1.80
2023-03-16T09:36:11.559Z,1.70
2023-03-16T09:38:35.145Z,1.77
2023-03-16T09:41:03.360Z,1.95
2023-03-16T09:43:44.425Z,1.65
2023-03-16T09:46:12.681Z,1.80
2023-03-16T09:48:39.770Z,1.90
2023-03-16T09:51:05.623Z,2.03
2023-03-16T09:53:34.273Z,1.85
2023-03-16T09:56:03.829Z,1.60
2023-03-16T09:58:27.433Z,2.13
2023-03-16T10:01:01.296Z,1.67
2023-03-16T10:03:41.745Z,1.70
2023-03-16T10:06:11.603Z,1.98
2023-03-16T10:08:42.069Z,1.48
2023-03-16T10:11:26.076Z,1.80
2023-03-16T10:13:55.568Z,1.48
2023-03-16T10:16:23.377Z,2.20
2023-03-16T10:18:50.914Z,1.58
2023-03-16T10:21:18.257Z,1.73
2023-03-16T10:23:44.825Z,1.60
2023-03-16T10:26:16.719Z,1.42
2023-03-16T10:28:42.426Z,1.40
2023-03-16T10:31:06.474Z,1.65
2023-03-16T10:33:33.591Z,1.60
2023-03-16T10:36:03.820Z,1.73
2023-03-16T10:38:32.988Z,1.60
2023-03-16T10:40:58.805Z,1.20
2023-03-16T10:43:22.788Z,1.20
2023-03-16T10:45:47.597Z,1.38
2023-03-16T10:48:15.980Z,1.92
2023-03-16T10:50:39.597Z,1.33
2023-03-16T10:53:05.462Z,1.30
2023-03-16T10:55:32.544Z,2.25
2023-03-16T10:57:58.314Z,1.42
2023-03-16T11:00:26.395Z,1.42
2023-03-16T11:02:52.324Z,1.85
2023-03-16T11:05:29.450Z,1.40
2023-03-16T11:08:00.502Z,1.30
2023-03-16T11:10:33.151Z,1.50
2023-03-16T11:13:04.459Z,1.65
2023-03-16T11:15:29.610Z,1.38
2023-03-16T11:17:54.749Z,1.33
2023-03-16T11:20:23.488Z,1.63
2023-03-16T11:22:48.820Z,1.30
2023-03-16T11:25:20.425Z,1.80
2023-03-16T11:27:50.437Z,1.73
2023-03-16T11:30:22.146Z,1.83
2023-03-16T11:32:53.534Z,1.67
2023-03-16T11:35:20.726Z,1.38
2023-03-16T11:37:58.830Z,1.50
2023-03-16T11:40:40.118Z,1.27
2023-03-16T11:43:21.390Z,1.67
2023-03-16T11:45:54.936Z,1.60
2023-03-16T11:48:30.686Z,1.40
2023-03-16T11:51:06.430Z,1.45
2023-03-16T11:53:52.933Z,1.52
2023-03-16T11:56:27.732Z,1.48
2023-03-16T11:59:03.893Z,1.50
2023-03-16T12:01:54.334Z,1.70
2023-03-16T12:04:42.011Z,1.52
2023-03-16T12:07:21.933Z,1.60
2023-03-16T12:10:06.578Z,1.60
2023-03-16T12:12:42.792Z,1.42
2023-03-16T12:15:30.032Z,1.45
2023-03-16T12:18:02.769Z,1.30
2023-03-16T12:20:31.703Z,1.58
2023-03-16T12:23:01.062Z,1.60
2023-03-16T12:25:38.117Z,1.30
2023-03-16T12:28:05.472Z,1.50
2023-03-16T12:30:45.905Z,1.27
2023-03-16T12:33:20.830Z,1.05
2023-03-16T12:35:50.873Z,1.40
2023-03-16T12:38:33.248Z,1.40
2023-03-16T12:41:09.618Z,1.55
2023-03-16T12:43:46.850Z,1.50
2023-03-16T12:46:15.657Z,1.60
2023-03-16T12:48:46.431Z,1.52
2023-03-16T12:51:10.128Z,1.50
2023-03-16T12:53:46.800Z,1.35
2023-03-16T12:56:13.452Z,1.60
2023-03-16T12:58:37.321Z,1.42
2023-03-16T13:01:01.472Z,1.70
2023-03-16T13:03:27.808Z,1.50
2023-03-16T13:05:57.817Z,1.45
2023-03-16T13:08:23.470Z,1.13
2023-03-16T13:11:03.348Z,1.63
2023-03-16T13:13:28.463Z,1.35
2023-03-16T13:16:07.167Z,1.52
2023-03-16T13:18:39.207Z,1.27
2023-03-16T13:21:18.898Z,0.95
2023-03-16T13:23:57.488Z,1.00
2023-03-16T13:26:37.415Z,0.85
2023-03-16T13:29:01.368Z,1.50
2023-03-16T13:31:30.014Z,1.33
2023-03-16T13:33:56.986Z,1.42
2023-03-16T13:36:22.452Z,1.40
2023-03-16T13:38:57.422Z,1.20
2023-03-16T13:41:21.185Z,1.50
2023-03-16T13:43:45.117Z,0.95
2023-03-16T13:46:17.088Z,1.70
2023-03-16T13:48:41.841Z,1.23
2023-03-16T13:51:06.808Z,1.40
2023-03-16T13:53:33.769Z,1.50
2023-03-16T13:56:00.095Z,1.33
2023-03-16T13:58:29.412Z,1.40
2023-03-16T14:00:58.098Z,1.10
2023-03-16T14:03:22.509Z,1.17
2023-03-16T14:05:47.534Z,0.77
2023-03-16T14:08:18.840Z,1.20
2023-03-16T14:10:45.219Z,0.80
2023-03-16T14:13:12.102Z,1.08
2023-03-16T14:15:39.475Z,1.17
2023-03-16T14:18:21.436Z,0.90
2023-03-16T14:20:45.265Z,1.00
2023-03-16T14:23:23.258Z,0.95
2023-03-16T14:25:50.173Z,1.00
2023-03-16T14:28:17.853Z,1.08
2023-03-16T14:30:52.493Z,1.02
2023-03-16T14:33:30.911Z,0.80
2023-03-16T14:35:57.589Z,1.13
2023-03-16T14:38:23.340Z,1.00
2023-03-16T14:40:56.047Z,1.05
2023-03-16T14:43:20.606Z,1.20
2023-03-16T14:45:44.262Z,1.60
2023-03-16T14:48:17.027Z,1.48
2023-03-16T14:50:40.631Z,1.30
2023-03-16T14:53:05.733Z,1.40
2023-03-16T14:55:30.277Z,1.10
2023-03-16T14:57:55.473Z,1.10
2023-03-16T15:00:21.910Z,0.90
2023-03-16T15:02:51.803Z,0.95
2023-03-16T15:05:24.996Z,0.90
2023-03-16T15:07:54.726Z,0.80
2023-03-16T15:10:24.703Z,0.80
2023-03-16T15:12:54.240Z,0.80
2023-03-16T15:15:22.651Z,0.68
2023-03-16T15:17:48.288Z,0.80
2023-03-16T15:20:14.141Z,1.00
2023-03-16T15:22:39.602Z,1.20
2023-03-16T15:25:09.248Z,0.95
2023-03-16T15:27:37.513Z,1.00
2023-03-16T15:30:01.996Z,1.08
2023-03-16T15:32:27.317Z,0.88
2023-03-16T15:34:51.084Z,1.20
2023-03-16T15:37:16.244Z,1.00
2023-03-16T15:39:40.234Z,1.15
2023-03-16T15:42:04.303Z,1.10
2023-03-16T15:44:28.164Z,0.90
2023-03-16T15:46:53.861Z,0.55
2023-03-16T15:49:19.121Z,1.02
2023-03-16T15:51:43.096Z,1.27
2023-03-16T15:54:09.622Z,1.10
2023-03-16T15:56:47.263Z,0.80
2023-03-16T15:59:18.164Z,1.05
2023-03-16T16:01:46.177Z,0.90
2023-03-16T16:04:16.503Z,0.93
2023-03-16T16:06:42.008Z,1.02
2023-03-16T16:09:05.992Z,0.90
2023-03-16T16:11:30.822Z,0.90
2023-03-16T16:13:56.684Z,1.00
2023-03-16T16:16:21.746Z,0.80
2023-03-16T16:18:46.750Z,0.98
2023-03-16T16:21:19.256Z,0.88
2023-03-16T16:23:44.500Z,0.70
2023-03-16T16:26:17.950Z,0.93
2023-03-16T16:28:42.030Z,0.85
2023-03-16T16:31:13.391Z,1.02
2023-03-16T16:33:37.549Z,0.82
2023-03-16T16:36:03.989Z,0.73
2023-03-16T16:38:28.149Z,1.30
2023-03-16T16:40:55.313Z,1.00
2023-03-16T16:43:35.016Z,1.10
2023-03-16T16:45:59.276Z,1.10
2023-03-16T16:48:33.008Z,1.38
2023-03-16T16:50:56.845Z,1.10
2023-03-16T16:53:22.447Z,0.93
2023-03-16T16:55:46.297Z,1.13
2023-03-16T16:58:23.565Z,1.10
2023-03-16T17:00:55.237Z,1.20
2023-03-16T17:03:24.757Z,1.10
2023-03-16T17:05:48.553Z,1.30
2023-03-16T17:08:14.305Z,1.30
2023-03-16T17:10:39.739Z,1.20
2023-03-16T17:13:03.528Z,0.90
2023-03-16T17:15:32.415Z,1.40
2023-03-16T17:18:02.011Z,1.40
2023-03-16T17:20:27.293Z,1.35
2023-03-16T17:22:51.445Z,1.38
2023-03-16T17:25:15.522Z,1.50
2023-03-16T17:27:39.217Z,1.10
2023-03-16T17:30:03.148Z,1.58
2023-03-16T17:32:28.252Z,1.35
2023-03-16T17:34:52.564Z,1.52
2023-03-16T17:37:20.126Z,1.50
2023-03-16T17:39:43.929Z,1.60
2023-03-16T17:42:12.531Z,1.40
2023-03-16T17:44:39.287Z,2.00
2023-03-16T17:47:03.010Z,1.75
2023-03-16T17:49:30.643Z,1.77
2023-03-16T17:51:54.531Z,1.70
2023-03-16T17:54:18.087Z,1.98
2023-03-16T17:56:42.415Z,1.38
2023-03-16T17:59:12.593Z,1.50
2023-03-16T18:01:39.063Z,1.70
2023-03-16T18:04:03.009Z,1.50
2023-03-16T18:06:29.826Z,1.80
2023-03-16T18:08:53.511Z,2.17
2023-03-16T18:11:21.316Z,1.77
2023-03-16T18:13:45.417Z,1.98
2023-03-16T18:16:10.245Z,1.95
2023-03-16T18:18:39.446Z,2.08
2023-03-16T18:21:03.047Z,2.05
2023-03-16T18:23:30.333Z,2.30
2023-03-16T18:25:56.193Z,2.30
2023-03-16T18:28:21.942Z,2.72
2023-03-16T18:30:48.570Z,2.83
2023-03-16T18:33:24.994Z,2.38
2023-03-16T18:35:48.764Z,2.67
2023-03-16T18:38:19.746Z,2.38
2023-03-16T18:40:44.718Z,2.22
2023-03-16T18:43:13.116Z,2.20
2023-03-16T18:45:37.000Z,1.80
2023-03-16T18:48:00.668Z,1.98
2023-03-16T18:50:28.689Z,2.22
2023-03-16T18:52:52.846Z,1.60
2023-03-16T18:55:19.603Z,2.05
2023-03-16T18:57:46.576Z,2.37
2023-03-16T19:00:17.808Z,2.20
2023-03-16T19:02:43.675Z,1.90
2023-03-16T19:05:12.496Z,1.98
2023-03-16T19:07:39.502Z,1.85
2023-03-16T19:10:08.614Z,2.30
2023-03-16T19:12:32.231Z,2.10
2023-03-16T19:14:57.138Z,2.17
2023-03-16T19:17:20.712Z,1.92
2023-03-16T19:19:44.237Z,2.00
2023-03-16T19:22:13.786Z,2.13
2023-03-16T19:24:46.125Z,2.28
2023-03-16T19:27:21.716Z,2.37
2023-03-16T19:29:45.347Z,1.67
2023-03-16T19:32:17.942Z,2.20
2023-03-16T19:34:41.520Z,1.80
2023-03-16T19:37:05.043Z,2.60
2023-03-16T19:39:28.630Z,1.80
2023-03-16T19:41:57.983Z,1.98
2023-03-16T19:44:25.349Z,1.90
2023-03-16T19:46:49.533Z,2.22
2023-03-16T19:49:18.221Z,2.30
2023-03-16T19:51:41.741Z,2.13
2023-03-16T19:54:05.665Z,2.53
2023-03-16T19:56:29.349Z,2.23
2023-03-16T19:58:54.485Z,2.15
2023-03-16T20:01:22.034Z,2.40
2023-03-16T20:03:47.502Z,2.50
2023-03-16T20:06:15.684Z,2.20
2023-03-16T20:08:39.420Z,2.45
2023-03-16T20:11:07.353Z,1.67
2023-03-16T20:13:31.690Z,1.92
2023-03-16T20:15:55.877Z,2.17
2023-03-16T20:18:19.708Z,1.67
2023-03-16T20:20:44.646Z,1.67
2023-03-16T20:23:20.266Z,2.30
2023-03-16T20:25:43.884Z,2.20
2023-03-16T20:28:17.924Z,2.00
2023-03-16T20:30:41.547Z,1.48
2023-03-16T20:33:06.266Z,2.10
2023-03-16T20:35:32.461Z,2.28
2023-03-16T20:37:57.000Z,2.35
2023-03-16T20:40:23.020Z,2.20
2023-03-16T20:42:47.552Z,2.38
2023-03-16T20:45:20.957Z,2.25
2023-03-16T20:47:44.941Z,2.43
2023-03-16T20:50:24.344Z,2.25
2023-03-16T20:52:49.152Z,2.63
2023-03-16T20:55:17.112Z,2.70
2023-03-16T20:57:43.752Z,2.53
2023-03-16T21:00:19.668Z,2.88
2023-03-16T21:02:43.263Z,2.40
2023-03-16T21:05:09.789Z,2.03
2023-03-16T21:07:33.986Z,2.42
2023-03-16T21:09:57.557Z,1.75
2023-03-16T21:12:27.961Z,2.22
2023-03-16T21:14:53.271Z,2.60
2023-03-16T21:17:25.916Z,2.90
2023-03-16T21:19:50.956Z,2.50
2023-03-16T21:22:24.926Z,2.85
2023-03-16T21:24:48.526Z,2.65
2023-03-16T21:27:20.939Z,2.90
2023-03-16T21:29:44.558Z,2.80
2023-03-16T21:32:20.931Z,2.93
2023-03-16T21:34:44.603Z,3.30
2023-03-16T21:37:14.718Z,3.20
2023-03-16T21:39:38.347Z,3.10
2023-03-16T21:42:02.249Z,3.30
2023-03-16T21:44:26.078Z,3.55
2023-03-16T21:46:49.870Z,2.78
2023-03-16T21:49:16.477Z,3.25
2023-03-16T21:51:40.220Z,3.53
2023-03-16T21:54:03.913Z,3.55
2023-03-16T21:56:27.718Z,3.88
2023-03-16T21:58:52.154Z,3.43
2023-03-16T22:01:24.943Z,3.58
2023-03-16T22:03:51.263Z,2.33
2023-03-16T22:06:16.574Z,3.27
2023-03-16T22:08:40.195Z,3.00
2023-03-16T22:11:04.109Z,3.40
2023-03-16T22:13:27.893Z,3.45
2023-03-16T22:15:52.817Z,3.03
2023-03-16T22:18:29.183Z,3.23
2023-03-16T22:20:52.856Z,4.20
2023-03-16T22:23:31.860Z,3.80
2023-03-16T22:25:55.556Z,3.55
2023-03-16T22:28:19.396Z,3.17
2023-03-16T22:30:43.789Z,3.67
2023-03-16T22:33:07.572Z,3.03
2023-03-16T22:35:35.451Z,3.23
2023-03-16T22:38:01.670Z,2.87
2023-03-16T22:40:31.518Z,3.47
2023-03-16T22:42:56.768Z,3.60
2023-03-16T22:45:25.108Z,2.87
2023-03-16T22:47:48.847Z,3.73
2023-03-16T22:50:16.761Z,4.00
2023-03-16T22:52:40.901Z,3.53
2023-03-16T22:55:08.305Z,4.43
2023-03-16T22:57:33.525Z,3.43
2023-03-16T22:59:57.259Z,3.70
2023-03-16T23:02:26.054Z,3.37
2023-03-16T23:04:49.666Z,3.53
2023-03-16T23:07:15.146Z,3.13
2023-03-16T23:09:38.803Z,3.77
2023-03-16T23:12:03.259Z,3.43
2023-03-16T23:14:34.114Z,3.20
2023-03-16T23:16:57.844Z,4.03
2023-03-16T23:19:26.585Z,3.97
2023-03-16T23:21:50.252Z,4.00
2023-03-16T23:24:13.791Z,3.90
2023-03-16T23:26:37.781Z,3.43
2023-03-16T23:29:01.574Z,3.70
2023-03-16T23:31:28.194Z,3.53
2023-03-16T23:33:51.768Z,3.53
2023-03-16T23:36:17.795Z,3.90
2023-03-16T23:38:41.496Z,4.13
2023-03-16T23:41:06.413Z,3.80
2023-03-16T23:43:30.009Z,2.70
2023-03-16T23:45:53.901Z,4.37
2023-03-16T23:48:22.222Z,4.23
2023-03-16T23:50:47.684Z,4.00
2023-03-16T23:53:16.662Z,3.80
2023-03-16T23:55:40.539Z,4.00
2023-03-16T23:58:04.105Z,2.93
